sensor_id;sensor_type;location;lat;lon;timestamp;temperature;humidity
24097;DHT22;12275;48.550;12.132;2022-09-09T00:04:34;15.70;99.90
24097;DHT22;12275;48.550;12.132;2022-09-09T00:10:21;15.70;99.90
24097;DHT22;12275;48.550;12.132;2022-09-09T00:12:57;15.70;99.90
24097;DHT22;12275;48.550;12.132;2022-09-09T00:18:17;15.80;99.90
24097;DHT22;12275;48.550;12.132;2022-09-09T00:21:06;15.80;99.90
24097;DHT22;12275;48.550;12.132;2022-09-09T00:23:39;15.70;99.90
24097;DHT22;12275;48.550;12.132;2022-09-09T00:26:38;15.60;99.90
24097;DHT22;12275;48.550;12.132;2022-09-09T00:32:05;15.60;99.90
24097;DHT22;12275;48.550;12.132;2022-09-09T00:34:36;15.60;99.90
24097;DHT22;12275;48.550;12.132;2022-09-09T00:37:04;15.50;99.90
24097;DHT22;12275;48.550;12.132;2022-09-09T00:39:41;15.50;99.90
24097;DHT22;12275;48.550;12.132;2022-09-09T00:47:50;15.40;99.90
24097;DHT22;12275;48.550;12.132;2022-09-09T00:56:13;15.30;99.90
24097;DHT22;12275;48.550;12.132;2022-09-09T00:58:43;15.30;99.90
24097;DHT22;12275;48.550;12.132;2022-09-09T01:01:13;15.30;99.90
24097;DHT22;12275;48.550;12.132;2022-09-09T01:03:54;15.20;99.90
24097;DHT22;12275;48.550;12.132;2022-09-09T01:10:11;15.10;99.90
24097;DHT22;12275;48.550;12.132;2022-09-09T01:12:48;15.10;99.90
24097;DHT22;12275;48.550;12.132;2022-09-09T01:14:56;15.00;99.90
24097;DHT22;12275;48.550;12.132;2022-09-09T01:17:26;15.10;99.90
24097;DHT22;12275;48.550;12.132;2022-09-09T01:20:13;15.10;99.90
24097;DHT22;12275;48.550;12.132;2022-09-09T01:26:03;15.00;99.90
24097;DHT22;12275;48.550;12.132;2022-09-09T01:28:31;15.10;99.90
24097;DHT22;12275;48.550;12.132;2022-09-09T01:30:59;15.10;99.90
24097;DHT22;12275;48.550;12.132;2022-09-09T01:33:25;15.00;99.90
24097;DHT22;12275;48.550;12.132;2022-09-09T01:35:59;14.80;99.90
24097;DHT22;12275;48.550;12.132;2022-09-09T01:38:26;14.70;99.90
24097;DHT22;12275;48.550;12.132;2022-09-09T01:40:53;14.70;99.90
24097;DHT22;12275;48.550;12.132;2022-09-09T01:43:22;14.50;99.90
24097;DHT22;12275;48.550;12.132;2022-09-09T01:45:52;14.60;99.90
24097;DHT22;12275;48.550;12.132;2022-09-09T01:48:24;14.70;99.90
24097;DHT22;12275;48.550;12.132;2022-09-09T01:50:50;14.70;99.90
24097;DHT22;12275;48.550;12.132;2022-09-09T01:53:17;14.80;99.90
24097;DHT22;12275;48.550;12.132;2022-09-09T01:55:58;14.80;99.90
24097;DHT22;12275;48.550;12.132;2022-09-09T01:58:53;14.80;99.90
24097;DHT22;12275;48.550;12.132;2022-09-09T02:06:55;14.60;99.90
24097;DHT22;12275;48.550;12.132;2022-09-09T02:09:24;14.60;99.90
24097;DHT22;12275;48.550;12.132;2022-09-09T02:11:59;14.60;99.90
24097;DHT22;12275;48.550;12.132;2022-09-09T02:14:31;14.70;99.90
24097;DHT22;12275;48.550;12.132;2022-09-09T02:17:06;14.70;99.90
24097;DHT22;12275;48.550;12.132;2022-09-09T02:19:37;14.60;99.90
24097;DHT22;12275;48.550;12.132;2022-09-09T02:22:04;14.60;99.90
24097;DHT22;12275;48.550;12.132;2022-09-09T02:24:33;14.60;99.90
24097;DHT22;12275;48.550;12.132;2022-09-09T02:27:02;14.60;99.90
24097;DHT22;12275;48.550;12.132;2022-09-09T02:29:41;14.60;99.90
24097;DHT22;12275;48.550;12.132;2022-09-09T02:32:12;14.60;99.90
24097;DHT22;12275;48.550;12.132;2022-09-09T02:34:46;14.50;99.90
24097;DHT22;12275;48.550;12.132;2022-09-09T02:37:15;14.50;99.90
24097;DHT22;12275;48.550;12.132;2022-09-09T02:39:42;14.50;99.90
24097;DHT22;12275;48.550;12.132;2022-09-09T02:42:08;14.50;99.90
24097;DHT22;12275;48.550;12.132;2022-09-09T02:44:35;14.60;99.90
24097;DHT22;12275;48.550;12.132;2022-09-09T02:52:07;14.80;99.90
24097;DHT22;12275;48.550;12.132;2022-09-09T02:54:35;14.80;99.90
24097;DHT22;12275;48.550;12.132;2022-09-09T02:57:25;14.70;99.90
24097;DHT22;12275;48.550;12.132;2022-09-09T02:59:53;14.80;99.90
24097;DHT22;12275;48.550;12.132;2022-09-09T03:02:19;14.80;99.90
24097;DHT22;12275;48.550;12.132;2022-09-09T03:04:45;14.80;99.90
24097;DHT22;12275;48.550;12.132;2022-09-09T03:07:16;14.70;99.90
24097;DHT22;12275;48.550;12.132;2022-09-09T03:09:42;14.70;99.90
24097;DHT22;12275;48.550;12.132;2022-09-09T03:12:08;14.70;99.90
24097;DHT22;12275;48.550;12.132;2022-09-09T03:14:37;14.70;99.90
24097;DHT22;12275;48.550;12.132;2022-09-09T03:17:04;14.60;99.90
24097;DHT22;12275;48.550;12.132;2022-09-09T03:19:30;14.60;99.90
24097;DHT22;12275;48.550;12.132;2022-09-09T03:21:59;14.60;99.90
24097;DHT22;12275;48.550;12.132;2022-09-09T03:24:25;14.70;99.90
24097;DHT22;12275;48.550;12.132;2022-09-09T03:26:51;14.70;99.90
24097;DHT22;12275;48.550;12.132;2022-09-09T03:29:17;14.70;99.90
24097;DHT22;12275;48.550;12.132;2022-09-09T03:31:44;14.60;99.90
24097;DHT22;12275;48.550;12.132;2022-09-09T03:34:10;14.60;99.90
24097;DHT22;12275;48.550;12.132;2022-09-09T03:36:36;14.40;99.90
24097;DHT22;12275;48.550;12.132;2022-09-09T03:39:02;14.40;99.90
24097;DHT22;12275;48.550;12.132;2022-09-09T03:41:28;14.50;99.90
24097;DHT22;12275;48.550;12.132;2022-09-09T03:43:54;14.50;99.90
24097;DHT22;12275;48.550;12.132;2022-09-09T03:46:21;14.50;99.90
24097;DHT22;12275;48.550;12.132;2022-09-09T03:48:47;14.60;99.90
24097;DHT22;12275;48.550;12.132;2022-09-09T03:51:13;14.60;99.90
24097;DHT22;12275;48.550;12.132;2022-09-09T03:53:38;14.70;99.90
24097;DHT22;12275;48.550;12.132;2022-09-09T03:56:06;14.70;99.90
24097;DHT22;12275;48.550;12.132;2022-09-09T03:58:33;14.70;99.90
24097;DHT22;12275;48.550;12.132;2022-09-09T04:01:10;14.70;99.90
24097;DHT22;12275;48.550;12.132;2022-09-09T04:03:38;14.70;99.90
24097;DHT22;12275;48.550;12.132;2022-09-09T04:06:07;14.70;99.90
24097;DHT22;12275;48.550;12.132;2022-09-09T04:08:35;14.70;99.90
24097;DHT22;12275;48.550;12.132;2022-09-09T04:11:02;14.70;99.90
24097;DHT22;12275;48.550;12.132;2022-09-09T04:13:35;14.70;99.90
24097;DHT22;12275;48.550;12.132;2022-09-09T04:16:03;14.70;99.90
24097;DHT22;12275;48.550;12.132;2022-09-09T04:18:30;14.70;99.90
24097;DHT22;12275;48.550;12.132;2022-09-09T04:20:56;14.70;99.90
24097;DHT22;12275;48.550;12.132;2022-09-09T04:23:23;14.70;99.90
24097;DHT22;12275;48.550;12.132;2022-09-09T04:25:54;14.70;99.90
24097;DHT22;12275;48.550;12.132;2022-09-09T04:28:23;14.70;99.90
24097;DHT22;12275;48.550;12.132;2022-09-09T04:30:49;14.60;99.90
24097;DHT22;12275;48.550;12.132;2022-09-09T04:33:14;14.70;99.90
24097;DHT22;12275;48.550;12.132;2022-09-09T04:35:49;14.70;99.90
24097;DHT22;12275;48.550;12.132;2022-09-09T04:38:16;14.70;99.90
24097;DHT22;12275;48.550;12.132;2022-09-09T04:40:48;14.60;99.90
24097;DHT22;12275;48.550;12.132;2022-09-09T04:43:14;14.60;99.90
24097;DHT22;12275;48.550;12.132;2022-09-09T04:45:41;14.60;99.90
24097;DHT22;12275;48.550;12.132;2022-09-09T04:48:07;14.60;99.90
24097;DHT22;12275;48.550;12.132;2022-09-09T04:50:35;14.60;99.90
24097;DHT22;12275;48.550;12.132;2022-09-09T04:53:01;14.60;99.90
24097;DHT22;12275;48.550;12.132;2022-09-09T04:55:27;14.60;99.90
24097;DHT22;12275;48.550;12.132;2022-09-09T04:57:53;14.50;99.90
24097;DHT22;12275;48.550;12.132;2022-09-09T05:00:19;14.50;99.90
24097;DHT22;12275;48.550;12.132;2022-09-09T05:02:45;14.60;99.90
24097;DHT22;12275;48.550;12.132;2022-09-09T05:05:10;14.50;99.90
24097;DHT22;12275;48.550;12.132;2022-09-09T05:07:36;14.50;99.90
24097;DHT22;12275;48.550;12.132;2022-09-09T05:10:02;14.40;99.90
24097;DHT22;12275;48.550;12.132;2022-09-09T05:12:30;14.40;99.90
24097;DHT22;12275;48.550;12.132;2022-09-09T05:14:57;14.40;99.90
24097;DHT22;12275;48.550;12.132;2022-09-09T05:17:31;14.50;99.90
24097;DHT22;12275;48.550;12.132;2022-09-09T05:19:58;14.50;99.90
24097;DHT22;12275;48.550;12.132;2022-09-09T05:22:28;14.50;99.90
24097;DHT22;12275;48.550;12.132;2022-09-09T05:24:55;14.40;99.90
24097;DHT22;12275;48.550;12.132;2022-09-09T05:27:27;14.40;99.90
24097;DHT22;12275;48.550;12.132;2022-09-09T05:30:04;14.40;99.90
24097;DHT22;12275;48.550;12.132;2022-09-09T05:32:30;14.40;99.90
24097;DHT22;12275;48.550;12.132;2022-09-09T05:34:59;14.40;99.90
24097;DHT22;12275;48.550;12.132;2022-09-09T05:37:25;14.40;99.90
24097;DHT22;12275;48.550;12.132;2022-09-09T05:39:50;14.40;99.90
24097;DHT22;12275;48.550;12.132;2022-09-09T05:42:16;14.40;99.90
24097;DHT22;12275;48.550;12.132;2022-09-09T05:44:42;14.40;99.90
24097;DHT22;12275;48.550;12.132;2022-09-09T05:47:08;14.40;99.90
24097;DHT22;12275;48.550;12.132;2022-09-09T05:49:34;14.40;99.90
24097;DHT22;12275;48.550;12.132;2022-09-09T05:52:00;14.40;99.90
24097;DHT22;12275;48.550;12.132;2022-09-09T05:54:26;14.40;99.90
24097;DHT22;12275;48.550;12.132;2022-09-09T05:56:51;14.40;99.90
24097;DHT22;12275;48.550;12.132;2022-09-09T05:59:19;14.40;99.90
24097;DHT22;12275;48.550;12.132;2022-09-09T06:01:45;14.40;99.90
24097;DHT22;12275;48.550;12.132;2022-09-09T06:04:10;14.40;99.90
24097;DHT22;12275;48.550;12.132;2022-09-09T06:06:37;14.50;99.90
24097;DHT22;12275;48.550;12.132;2022-09-09T06:09:06;14.60;99.90
24097;DHT22;12275;48.550;12.132;2022-09-09T06:11:35;14.70;99.90
24097;DHT22;12275;48.550;12.132;2022-09-09T06:14:02;14.80;99.90
24097;DHT22;12275;48.550;12.132;2022-09-09T06:16:29;14.80;99.90
24097;DHT22;12275;48.550;12.132;2022-09-09T06:18:56;14.80;99.90
24097;DHT22;12275;48.550;12.132;2022-09-09T06:21:28;14.70;99.90
24097;DHT22;12275;48.550;12.132;2022-09-09T06:23:54;14.60;99.90
24097;DHT22;12275;48.550;12.132;2022-09-09T06:26:22;14.60;99.90
24097;DHT22;12275;48.550;12.132;2022-09-09T06:28:50;14.60;99.90
24097;DHT22;12275;48.550;12.132;2022-09-09T06:31:22;14.50;99.90
24097;DHT22;12275;48.550;12.132;2022-09-09T06:33:50;14.50;99.90
24097;DHT22;12275;48.550;12.132;2022-09-09T06:36:27;14.50;99.90
24097;DHT22;12275;48.550;12.132;2022-09-09T06:38:53;14.50;99.90
24097;DHT22;12275;48.550;12.132;2022-09-09T06:41:20;14.50;99.90
24097;DHT22;12275;48.550;12.132;2022-09-09T06:43:46;14.50;99.90
24097;DHT22;12275;48.550;12.132;2022-09-09T06:46:23;14.60;99.90
24097;DHT22;12275;48.550;12.132;2022-09-09T06:48:53;14.60;99.90
24097;DHT22;12275;48.550;12.132;2022-09-09T06:51:27;14.50;99.90
24097;DHT22;12275;48.550;12.132;2022-09-09T06:53:54;14.50;99.90
24097;DHT22;12275;48.550;12.132;2022-09-09T06:56:32;14.60;99.90
24097;DHT22;12275;48.550;12.132;2022-09-09T06:59:00;14.50;99.90
24097;DHT22;12275;48.550;12.132;2022-09-09T07:01:34;14.50;99.90
24097;DHT22;12275;48.550;12.132;2022-09-09T07:04:01;14.50;99.90
24097;DHT22;12275;48.550;12.132;2022-09-09T07:06:32;14.50;99.90
24097;DHT22;12275;48.550;12.132;2022-09-09T07:09:04;14.50;99.90
24097;DHT22;12275;48.550;12.132;2022-09-09T07:11:33;14.60;99.90
24097;DHT22;12275;48.550;12.132;2022-09-09T07:14:00;14.60;99.90
24097;DHT22;12275;48.550;12.132;2022-09-09T07:16:26;14.60;99.90
24097;DHT22;12275;48.550;12.132;2022-09-09T07:18:53;14.60;99.90
24097;DHT22;12275;48.550;12.132;2022-09-09T07:21:24;14.60;99.90
24097;DHT22;12275;48.550;12.132;2022-09-09T07:23:50;14.60;99.90
24097;DHT22;12275;48.550;12.132;2022-09-09T07:26:18;14.60;99.90
24097;DHT22;12275;48.550;12.132;2022-09-09T07:28:48;14.70;99.90
24097;DHT22;12275;48.550;12.132;2022-09-09T07:31:16;14.70;99.90
24097;DHT22;12275;48.550;12.132;2022-09-09T07:33:43;14.70;99.90
24097;DHT22;12275;48.550;12.132;2022-09-09T07:36:13;14.70;99.90
24097;DHT22;12275;48.550;12.132;2022-09-09T07:38:46;14.70;99.90
24097;DHT22;12275;48.550;12.132;2022-09-09T07:41:19;14.70;99.90
24097;DHT22;12275;48.550;12.132;2022-09-09T07:43:46;14.70;99.90
24097;DHT22;12275;48.550;12.132;2022-09-09T07:46:14;14.70;99.90
24097;DHT22;12275;48.550;12.132;2022-09-09T07:48:47;14.70;99.90
24097;DHT22;12275;48.550;12.132;2022-09-09T07:51:20;14.70;99.90
24097;DHT22;12275;48.550;12.132;2022-09-09T07:53:48;14.80;99.90
24097;DHT22;12275;48.550;12.132;2022-09-09T07:56:17;14.80;99.90
24097;DHT22;12275;48.550;12.132;2022-09-09T07:58:46;14.90;99.90
24097;DHT22;12275;48.550;12.132;2022-09-09T08:01:15;14.90;99.90
24097;DHT22;12275;48.550;12.132;2022-09-09T08:03:44;14.90;99.90
24097;DHT22;12275;48.550;12.132;2022-09-09T08:06:10;14.90;99.90
24097;DHT22;12275;48.550;12.132;2022-09-09T08:08:36;14.90;99.90
24097;DHT22;12275;48.550;12.132;2022-09-09T08:11:14;14.80;99.90
24097;DHT22;12275;48.550;12.132;2022-09-09T08:13:41;14.80;99.90
24097;DHT22;12275;48.550;12.132;2022-09-09T08:16:13;14.90;99.90
24097;DHT22;12275;48.550;12.132;2022-09-09T08:18:40;14.90;99.90
24097;DHT22;12275;48.550;12.132;2022-09-09T08:21:08;14.90;99.90
24097;DHT22;12275;48.550;12.132;2022-09-09T08:23:34;14.90;99.90
24097;DHT22;12275;48.550;12.132;2022-09-09T08:26:26;15.00;99.90
24097;DHT22;12275;48.550;12.132;2022-09-09T08:28:54;15.00;99.90
24097;DHT22;12275;48.550;12.132;2022-09-09T08:31:43;14.90;99.90
24097;DHT22;12275;48.550;12.132;2022-09-09T08:34:09;14.90;99.90
24097;DHT22;12275;48.550;12.132;2022-09-09T08:36:42;15.00;99.90
24097;DHT22;12275;48.550;12.132;2022-09-09T08:39:10;15.00;99.90
24097;DHT22;12275;48.550;12.132;2022-09-09T08:50:25;15.10;99.90
24097;DHT22;12275;48.550;12.132;2022-09-09T08:53:14;15.10;99.90
24097;DHT22;12275;48.550;12.132;2022-09-09T08:55:50;15.10;99.90
24097;DHT22;12275;48.550;12.132;2022-09-09T08:58:21;15.20;99.90
24097;DHT22;12275;48.550;12.132;2022-09-09T09:09:02;15.40;99.90
24097;DHT22;12275;48.550;12.132;2022-09-09T09:11:43;15.40;99.90
24097;DHT22;12275;48.550;12.132;2022-09-09T09:14:25;15.50;99.90
24097;DHT22;12275;48.550;12.132;2022-09-09T09:16:54;15.60;99.90
24097;DHT22;12275;48.550;12.132;2022-09-09T09:19:22;15.50;99.90
24097;DHT22;12275;48.550;12.132;2022-09-09T09:25:03;15.60;99.90
24097;DHT22;12275;48.550;12.132;2022-09-09T09:28:02;15.60;99.90
24097;DHT22;12275;48.550;12.132;2022-09-09T09:30:42;15.60;99.90
24097;DHT22;12275;48.550;12.132;2022-09-09T09:33:44;15.60;99.90
24097;DHT22;12275;48.550;12.132;2022-09-09T09:36:12;15.60;99.90
24097;DHT22;12275;48.550;12.132;2022-09-09T09:38:58;15.60;99.90
24097;DHT22;12275;48.550;12.132;2022-09-09T09:41:36;15.60;99.90
24097;DHT22;12275;48.550;12.132;2022-09-09T09:44:03;15.60;99.90
24097;DHT22;12275;48.550;12.132;2022-09-09T09:46:29;15.70;99.90
24097;DHT22;12275;48.550;12.132;2022-09-09T09:49:04;15.70;99.90
24097;DHT22;12275;48.550;12.132;2022-09-09T09:51:34;15.80;99.90
24097;DHT22;12275;48.550;12.132;2022-09-09T09:54:14;15.80;99.90
24097;DHT22;12275;48.550;12.132;2022-09-09T09:56:42;15.80;99.90
24097;DHT22;12275;48.550;12.132;2022-09-09T10:01:54;15.90;99.90
24097;DHT22;12275;48.550;12.132;2022-09-09T10:04:22;15.90;99.90
24097;DHT22;12275;48.550;12.132;2022-09-09T10:06:49;15.90;99.90
24097;DHT22;12275;48.550;12.132;2022-09-09T10:09:25;15.80;99.90
24097;DHT22;12275;48.550;12.132;2022-09-09T10:12:40;15.90;99.90
24097;DHT22;12275;48.550;12.132;2022-09-09T10:17:52;15.90;99.90
24097;DHT22;12275;48.550;12.132;2022-09-09T10:22:51;16.00;99.90
24097;DHT22;12275;48.550;12.132;2022-09-09T10:30:48;16.10;99.90
24097;DHT22;12275;48.550;12.132;2022-09-09T10:36:24;16.10;99.90
24097;DHT22;12275;48.550;12.132;2022-09-09T10:39:03;16.10;99.90
24097;DHT22;12275;48.550;12.132;2022-09-09T10:42:03;16.20;99.90
24097;DHT22;12275;48.550;12.132;2022-09-09T10:55:42;16.20;99.90
24097;DHT22;12275;48.550;12.132;2022-09-09T10:58:23;16.30;99.90
24097;DHT22;12275;48.550;12.132;2022-09-09T11:00:57;16.30;99.90
24097;DHT22;12275;48.550;12.132;2022-09-09T11:03:28;16.30;99.90
24097;DHT22;12275;48.550;12.132;2022-09-09T11:06:05;16.30;99.90
24097;DHT22;12275;48.550;12.132;2022-09-09T11:08:35;16.30;99.90
24097;DHT22;12275;48.550;12.132;2022-09-09T11:11:05;16.30;99.90
24097;DHT22;12275;48.550;12.132;2022-09-09T11:13:53;16.30;99.90
24097;DHT22;12275;48.550;12.132;2022-09-09T11:21:51;16.30;99.90
24097;DHT22;12275;48.550;12.132;2022-09-09T11:24:26;16.40;99.90
24097;DHT22;12275;48.550;12.132;2022-09-09T11:35:19;16.80;99.90
24097;DHT22;12275;48.550;12.132;2022-09-09T11:40:28;17.00;99.90
24097;DHT22;12275;48.550;12.132;2022-09-09T11:43:12;17.20;99.90
24097;DHT22;12275;48.550;12.132;2022-09-09T11:45:41;17.20;99.90
24097;DHT22;12275;48.550;12.132;2022-09-09T11:48:32;17.20;99.90
24097;DHT22;12275;48.550;12.132;2022-09-09T11:51:08;17.10;99.90
24097;DHT22;12275;48.550;12.132;2022-09-09T11:53:35;17.20;99.90
24097;DHT22;12275;48.550;12.132;2022-09-09T11:56:13;17.20;99.90
24097;DHT22;12275;48.550;12.132;2022-09-09T11:59:03;17.20;99.90
24097;DHT22;12275;48.550;12.132;2022-09-09T12:01:41;17.30;99.90
24097;DHT22;12275;48.550;12.132;2022-09-09T12:07:02;17.50;99.90
24097;DHT22;12275;48.550;12.132;2022-09-09T12:17:21;17.90;99.90
24097;DHT22;12275;48.550;12.132;2022-09-09T12:19:48;18.00;99.90
24097;DHT22;12275;48.550;12.132;2022-09-09T12:22:26;18.10;99.90
24097;DHT22;12275;48.550;12.132;2022-09-09T12:25:27;18.20;99.90
24097;DHT22;12275;48.550;12.132;2022-09-09T12:30:44;18.50;99.90
24097;DHT22;12275;48.550;12.132;2022-09-09T12:33:16;18.50;99.90
24097;DHT22;12275;48.550;12.132;2022-09-09T12:35:43;18.50;99.90
24097;DHT22;12275;48.550;12.132;2022-09-09T12:38:18;18.40;99.90
24097;DHT22;12275;48.550;12.132;2022-09-09T12:40:57;18.40;99.90
24097;DHT22;12275;48.550;12.132;2022-09-09T12:43:25;18.40;99.90
24097;DHT22;12275;48.550;12.132;2022-09-09T12:45:57;18.40;99.90
24097;DHT22;12275;48.550;12.132;2022-09-09T12:48:32;18.40;99.90
24097;DHT22;12275;48.550;12.132;2022-09-09T12:50:59;18.40;99.90
24097;DHT22;12275;48.550;12.132;2022-09-09T12:53:46;18.40;99.90
24097;DHT22;12275;48.550;12.132;2022-09-09T12:56:20;18.50;99.90
24097;DHT22;12275;48.550;12.132;2022-09-09T12:58:46;18.60;99.90
24097;DHT22;12275;48.550;12.132;2022-09-09T13:01:31;18.50;99.90
24097;DHT22;12275;48.550;12.132;2022-09-09T13:03:57;18.60;99.90
24097;DHT22;12275;48.550;12.132;2022-09-09T13:06:28;18.70;99.90
24097;DHT22;12275;48.550;12.132;2022-09-09T13:08:55;18.80;99.90
24097;DHT22;12275;48.550;12.132;2022-09-09T13:11:41;18.90;99.90
24097;DHT22;12275;48.550;12.132;2022-09-09T13:14:18;18.70;99.90
24097;DHT22;12275;48.550;12.132;2022-09-09T13:16:58;18.80;99.90
24097;DHT22;12275;48.550;12.132;2022-09-09T13:19:25;18.70;99.90
24097;DHT22;12275;48.550;12.132;2022-09-09T13:21:53;18.70;99.90
24097;DHT22;12275;48.550;12.132;2022-09-09T13:24:32;18.60;99.90
24097;DHT22;12275;48.550;12.132;2022-09-09T13:27:19;18.60;99.90
24097;DHT22;12275;48.550;12.132;2022-09-09T13:29:53;18.60;99.90
24097;DHT22;12275;48.550;12.132;2022-09-09T13:32:21;18.70;99.90
24097;DHT22;12275;48.550;12.132;2022-09-09T13:34:52;18.80;99.90
24097;DHT22;12275;48.550;12.132;2022-09-09T13:39:53;18.80;99.90
24097;DHT22;12275;48.550;12.132;2022-09-09T13:42:28;19.00;99.90
24097;DHT22;12275;48.550;12.132;2022-09-09T13:44:56;18.90;99.90
24097;DHT22;12275;48.550;12.132;2022-09-09T13:47:29;18.90;99.90
24097;DHT22;12275;48.550;12.132;2022-09-09T13:49:56;18.80;99.90
24097;DHT22;12275;48.550;12.132;2022-09-09T13:52:22;18.80;99.90
24097;DHT22;12275;48.550;12.132;2022-09-09T13:54:51;18.70;99.90
24097;DHT22;12275;48.550;12.132;2022-09-09T13:57:22;18.70;99.90
24097;DHT22;12275;48.550;12.132;2022-09-09T13:59:51;18.70;99.90
24097;DHT22;12275;48.550;12.132;2022-09-09T14:02:17;18.60;99.90
24097;DHT22;12275;48.550;12.132;2022-09-09T14:04:44;18.60;99.90
24097;DHT22;12275;48.550;12.132;2022-09-09T14:07:15;18.60;99.90
24097;DHT22;12275;48.550;12.132;2022-09-09T14:09:42;18.60;99.90
24097;DHT22;12275;48.550;12.132;2022-09-09T14:12:11;18.60;99.90
24097;DHT22;12275;48.550;12.132;2022-09-09T14:14:38;18.60;99.90
24097;DHT22;12275;48.550;12.132;2022-09-09T14:17:04;18.60;99.90
24097;DHT22;12275;48.550;12.132;2022-09-09T14:19:30;18.70;99.90
24097;DHT22;12275;48.550;12.132;2022-09-09T14:21:57;18.70;99.90
24097;DHT22;12275;48.550;12.132;2022-09-09T14:24:23;18.80;99.90
24097;DHT22;12275;48.550;12.132;2022-09-09T14:26:48;18.80;99.90
24097;DHT22;12275;48.550;12.132;2022-09-09T14:29:14;18.70;99.90
24097;DHT22;12275;48.550;12.132;2022-09-09T14:31:40;18.60;99.90
24097;DHT22;12275;48.550;12.132;2022-09-09T14:34:05;18.60;99.90
24097;DHT22;12275;48.550;12.132;2022-09-09T14:36:31;18.70;99.90
24097;DHT22;12275;48.550;12.132;2022-09-09T14:38:57;18.70;99.90
24097;DHT22;12275;48.550;12.132;2022-09-09T14:41:24;18.80;99.90
24097;DHT22;12275;48.550;12.132;2022-09-09T14:43:50;18.80;99.90
24097;DHT22;12275;48.550;12.132;2022-09-09T14:46:19;18.70;99.90
24097;DHT22;12275;48.550;12.132;2022-09-09T14:48:45;18.70;99.90
24097;DHT22;12275;48.550;12.132;2022-09-09T14:51:19;18.60;99.90
24097;DHT22;12275;48.550;12.132;2022-09-09T14:53:45;18.50;99.90
24097;DHT22;12275;48.550;12.132;2022-09-09T14:56:16;18.50;99.90
24097;DHT22;12275;48.550;12.132;2022-09-09T14:58:42;18.40;99.90
24097;DHT22;12275;48.550;12.132;2022-09-09T15:01:10;18.30;99.90
24097;DHT22;12275;48.550;12.132;2022-09-09T15:03:38;18.30;99.90
24097;DHT22;12275;48.550;12.132;2022-09-09T15:06:09;18.30;99.90
24097;DHT22;12275;48.550;12.132;2022-09-09T15:08:36;18.30;99.90
24097;DHT22;12275;48.550;12.132;2022-09-09T15:11:04;18.20;99.90
24097;DHT22;12275;48.550;12.132;2022-09-09T15:13:30;18.20;99.90
24097;DHT22;12275;48.550;12.132;2022-09-09T15:15:55;18.20;99.90
24097;DHT22;12275;48.550;12.132;2022-09-09T15:18:23;18.20;99.90
24097;DHT22;12275;48.550;12.132;2022-09-09T15:20:49;18.20;99.90
24097;DHT22;12275;48.550;12.132;2022-09-09T15:23:14;18.20;99.90
24097;DHT22;12275;48.550;12.132;2022-09-09T15:25:55;18.20;99.90
24097;DHT22;12275;48.550;12.132;2022-09-09T15:28:22;18.10;99.90
24097;DHT22;12275;48.550;12.132;2022-09-09T15:30:52;18.10;99.90
24097;DHT22;12275;48.550;12.132;2022-09-09T15:33:22;18.10;99.90
24097;DHT22;12275;48.550;12.132;2022-09-09T15:35:48;18.10;99.90
24097;DHT22;12275;48.550;12.132;2022-09-09T15:38:14;18.10;99.90
24097;DHT22;12275;48.550;12.132;2022-09-09T15:40:42;18.10;99.90
24097;DHT22;12275;48.550;12.132;2022-09-09T15:43:08;18.10;99.90
24097;DHT22;12275;48.550;12.132;2022-09-09T15:45:35;18.10;99.90
24097;DHT22;12275;48.550;12.132;2022-09-09T15:48:01;18.10;99.90
24097;DHT22;12275;48.550;12.132;2022-09-09T15:50:27;18.00;99.90
24097;DHT22;12275;48.550;12.132;2022-09-09T15:52:54;18.00;99.90
24097;DHT22;12275;48.550;12.132;2022-09-09T15:55:20;18.00;99.90
24097;DHT22;12275;48.550;12.132;2022-09-09T15:57:46;18.00;99.90
24097;DHT22;12275;48.550;12.132;2022-09-09T16:00:12;18.00;99.90
24097;DHT22;12275;48.550;12.132;2022-09-09T16:02:39;17.90;99.90
24097;DHT22;12275;48.550;12.132;2022-09-09T16:05:05;17.90;99.90
24097;DHT22;12275;48.550;12.132;2022-09-09T16:07:31;17.90;99.90
24097;DHT22;12275;48.550;12.132;2022-09-09T16:09:57;17.90;99.90
24097;DHT22;12275;48.550;12.132;2022-09-09T16:12:22;17.90;99.90
24097;DHT22;12275;48.550;12.132;2022-09-09T16:14:48;17.90;99.90
24097;DHT22;12275;48.550;12.132;2022-09-09T16:17:14;17.90;99.90
24097;DHT22;12275;48.550;12.132;2022-09-09T16:19:41;17.90;99.90
24097;DHT22;12275;48.550;12.132;2022-09-09T16:22:06;17.90;99.90
24097;DHT22;12275;48.550;12.132;2022-09-09T16:24:33;17.80;99.90
24097;DHT22;12275;48.550;12.132;2022-09-09T16:26:58;17.80;99.90
24097;DHT22;12275;48.550;12.132;2022-09-09T16:29:24;17.80;99.90
24097;DHT22;12275;48.550;12.132;2022-09-09T16:31:53;17.80;99.90
24097;DHT22;12275;48.550;12.132;2022-09-09T16:34:19;17.80;99.90
24097;DHT22;12275;48.550;12.132;2022-09-09T16:36:46;17.80;99.90
24097;DHT22;12275;48.550;12.132;2022-09-09T16:39:17;17.90;99.90
24097;DHT22;12275;48.550;12.132;2022-09-09T16:41:44;17.90;99.90
24097;DHT22;12275;48.550;12.132;2022-09-09T16:44:12;17.90;99.90
24097;DHT22;12275;48.550;12.132;2022-09-09T16:46:42;17.90;99.90
24097;DHT22;12275;48.550;12.132;2022-09-09T16:49:10;17.90;99.90
24097;DHT22;12275;48.550;12.132;2022-09-09T16:51:41;17.90;99.90
24097;DHT22;12275;48.550;12.132;2022-09-09T16:54:08;17.90;99.90
24097;DHT22;12275;48.550;12.132;2022-09-09T16:56:37;17.90;99.90
24097;DHT22;12275;48.550;12.132;2022-09-09T16:59:08;17.90;99.90
24097;DHT22;12275;48.550;12.132;2022-09-09T17:01:37;17.90;99.90
24097;DHT22;12275;48.550;12.132;2022-09-09T17:04:05;17.90;99.90
24097;DHT22;12275;48.550;12.132;2022-09-09T17:06:32;17.80;99.90
24097;DHT22;12275;48.550;12.132;2022-09-09T17:09:01;17.80;99.90
24097;DHT22;12275;48.550;12.132;2022-09-09T17:11:28;17.80;99.90
24097;DHT22;12275;48.550;12.132;2022-09-09T17:13:54;17.80;99.90
24097;DHT22;12275;48.550;12.132;2022-09-09T17:16:22;17.80;99.90
24097;DHT22;12275;48.550;12.132;2022-09-09T17:18:49;17.70;99.90
24097;DHT22;12275;48.550;12.132;2022-09-09T17:21:18;17.70;99.90
24097;DHT22;12275;48.550;12.132;2022-09-09T17:23:45;17.70;99.90
24097;DHT22;12275;48.550;12.132;2022-09-09T17:26:14;17.70;99.90
24097;DHT22;12275;48.550;12.132;2022-09-09T17:28:41;17.70;99.90
24097;DHT22;12275;48.550;12.132;2022-09-09T17:31:13;17.70;99.90
24097;DHT22;12275;48.550;12.132;2022-09-09T17:33:43;17.70;99.90
24097;DHT22;12275;48.550;12.132;2022-09-09T17:38:39;17.60;99.90